sensor_id;sensor_type;location;lat;lon;timestamp;temperature;humidity
2967;DHT22;1493;51.496;7.210;2024-02-26T00:00:03;6.80;99.90
2967;DHT22;1493;51.496;7.210;2024-02-26T00:02:34;6.90;99.90
2967;DHT22;1493;51.496;7.210;2024-02-26T00:05:04;6.90;99.90
2967;DHT22;1493;51.496;7.210;2024-02-26T00:07:31;6.90;99.90
2967;DHT22;1493;51.496;7.210;2024-02-26T00:09:59;7.00;99.90
2967;DHT22;1493;51.496;7.210;2024-02-26T00:12:26;6.90;99.90
2967;DHT22;1493;51.496;7.210;2024-02-26T00:14:53;6.90;99.90
2967;DHT22;1493;51.496;7.210;2024-02-26T00:17:22;6.90;99.90
2967;DHT22;1493;51.496;7.210;2024-02-26T00:19:48;6.90;99.90
2967;DHT22;1493;51.496;7.210;2024-02-26T00:22:15;7.00;99.90
2967;DHT22;1493;51.496;7.210;2024-02-26T00:24:42;7.10;99.90
2967;DHT22;1493;51.496;7.210;2024-02-26T00:27:10;7.10;99.90
2967;DHT22;1493;51.496;7.210;2024-02-26T00:29:37;7.10;99.90
2967;DHT22;1493;51.496;7.210;2024-02-26T00:32:04;7.10;99.90
2967;DHT22;1493;51.496;7.210;2024-02-26T00:34:32;7.10;99.90
2967;DHT22;1493;51.496;7.210;2024-02-26T00:36:58;7.10;99.90
2967;DHT22;1493;51.496;7.210;2024-02-26T00:39:25;7.10;99.90
2967;DHT22;1493;51.496;7.210;2024-02-26T00:41:52;7.00;99.90
2967;DHT22;1493;51.496;7.210;2024-02-26T00:44:20;7.00;99.90
2967;DHT22;1493;51.496;7.210;2024-02-26T00:46:47;7.00;99.90
2967;DHT22;1493;51.496;7.210;2024-02-26T00:49:14;7.10;99.90
2967;DHT22;1493;51.496;7.210;2024-02-26T00:51:41;7.00;99.90
2967;DHT22;1493;51.496;7.210;2024-02-26T00:54:07;6.90;99.90
2967;DHT22;1493;51.496;7.210;2024-02-26T00:56:34;6.90;99.90
2967;DHT22;1493;51.496;7.210;2024-02-26T00:59:01;6.80;99.90
2967;DHT22;1493;51.496;7.210;2024-02-26T01:01:29;6.80;99.90
2967;DHT22;1493;51.496;7.210;2024-02-26T01:03:56;6.90;99.90
2967;DHT22;1493;51.496;7.210;2024-02-26T01:06:23;6.90;99.90
2967;DHT22;1493;51.496;7.210;2024-02-26T01:08:50;6.90;99.90
2967;DHT22;1493;51.496;7.210;2024-02-26T01:11:17;6.90;99.90
2967;DHT22;1493;51.496;7.210;2024-02-26T01:13:43;6.80;99.90
2967;DHT22;1493;51.496;7.210;2024-02-26T01:16:10;6.70;99.90
2967;DHT22;1493;51.496;7.210;2024-02-26T01:18:39;6.80;99.90
2967;DHT22;1493;51.496;7.210;2024-02-26T01:21:05;6.80;99.90
2967;DHT22;1493;51.496;7.210;2024-02-26T01:23:34;6.80;99.90
2967;DHT22;1493;51.496;7.210;2024-02-26T01:26:01;6.70;99.90
2967;DHT22;1493;51.496;7.210;2024-02-26T01:28:30;6.70;99.90
2967;DHT22;1493;51.496;7.210;2024-02-26T01:30:57;6.70;99.90
2967;DHT22;1493;51.496;7.210;2024-02-26T01:33:25;6.70;99.90
2967;DHT22;1493;51.496;7.210;2024-02-26T01:35:53;6.70;99.90
2967;DHT22;1493;51.496;7.210;2024-02-26T01:38:20;6.70;99.90
2967;DHT22;1493;51.496;7.210;2024-02-26T01:40:47;6.70;99.90
2967;DHT22;1493;51.496;7.210;2024-02-26T01:43:14;6.70;99.90
2967;DHT22;1493;51.496;7.210;2024-02-26T01:45:41;6.70;99.90
2967;DHT22;1493;51.496;7.210;2024-02-26T01:48:07;6.70;99.90
2967;DHT22;1493;51.496;7.210;2024-02-26T01:50:36;6.70;99.90
2967;DHT22;1493;51.496;7.210;2024-02-26T01:53:05;6.60;99.90
2967;DHT22;1493;51.496;7.210;2024-02-26T01:55:33;6.60;99.90
2967;DHT22;1493;51.496;7.210;2024-02-26T01:58:01;6.60;99.90
2967;DHT22;1493;51.496;7.210;2024-02-26T02:00:28;6.60;99.90
2967;DHT22;1493;51.496;7.210;2024-02-26T02:02:55;6.60;99.90
2967;DHT22;1493;51.496;7.210;2024-02-26T02:05:22;6.60;99.90
2967;DHT22;1493;51.496;7.210;2024-02-26T02:07:49;6.60;99.90
2967;DHT22;1493;51.496;7.210;2024-02-26T02:10:19;6.60;99.90
2967;DHT22;1493;51.496;7.210;2024-02-26T02:12:48;6.60;99.90
2967;DHT22;1493;51.496;7.210;2024-02-26T02:15:15;6.50;99.90
2967;DHT22;1493;51.496;7.210;2024-02-26T02:17:42;6.50;99.90
2967;DHT22;1493;51.496;7.210;2024-02-26T02:20:09;6.60;99.90
2967;DHT22;1493;51.496;7.210;2024-02-26T02:22:42;6.60;99.90
2967;DHT22;1493;51.496;7.210;2024-02-26T02:25:09;6.50;99.90
2967;DHT22;1493;51.496;7.210;2024-02-26T02:27:36;6.60;99.90
2967;DHT22;1493;51.496;7.210;2024-02-26T02:30:05;6.60;99.90
2967;DHT22;1493;51.496;7.210;2024-02-26T02:32:33;6.60;99.90
2967;DHT22;1493;51.496;7.210;2024-02-26T02:35:00;6.60;99.90
2967;DHT22;1493;51.496;7.210;2024-02-26T02:37:27;6.70;99.90
2967;DHT22;1493;51.496;7.210;2024-02-26T02:39:55;6.70;99.90
2967;DHT22;1493;51.496;7.210;2024-02-26T02:42:23;6.60;99.90
2967;DHT22;1493;51.496;7.210;2024-02-26T02:44:50;6.60;99.90
2967;DHT22;1493;51.496;7.210;2024-02-26T02:47:17;6.70;99.90
2967;DHT22;1493;51.496;7.210;2024-02-26T02:49:43;6.70;99.90
2967;DHT22;1493;51.496;7.210;2024-02-26T02:52:10;6.70;99.90
2967;DHT22;1493;51.496;7.210;2024-02-26T02:54:37;6.70;99.90
2967;DHT22;1493;51.496;7.210;2024-02-26T02:57:08;6.70;99.90
2967;DHT22;1493;51.496;7.210;2024-02-26T02:59:35;6.70;99.90
2967;DHT22;1493;51.496;7.210;2024-02-26T03:02:02;6.70;99.90
2967;DHT22;1493;51.496;7.210;2024-02-26T03:04:28;6.70;99.90
2967;DHT22;1493;51.496;7.210;2024-02-26T03:06:55;6.70;99.90
2967;DHT22;1493;51.496;7.210;2024-02-26T03:09:23;6.70;99.90
2967;DHT22;1493;51.496;7.210;2024-02-26T03:11:50;6.70;99.90
2967;DHT22;1493;51.496;7.210;2024-02-26T03:14:18;6.70;99.90
2967;DHT22;1493;51.496;7.210;2024-02-26T03:16:46;6.80;99.90
2967;DHT22;1493;51.496;7.210;2024-02-26T03:19:14;6.70;99.90
2967;DHT22;1493;51.496;7.210;2024-02-26T03:21:41;6.70;99.90
2967;DHT22;1493;51.496;7.210;2024-02-26T03:24:08;6.70;99.90
2967;DHT22;1493;51.496;7.210;2024-02-26T03:26:35;6.70;99.90
2967;DHT22;1493;51.496;7.210;2024-02-26T03:29:02;6.70;99.90
2967;DHT22;1493;51.496;7.210;2024-02-26T03:31:30;6.70;99.90
2967;DHT22;1493;51.496;7.210;2024-02-26T03:33:57;6.70;99.90
2967;DHT22;1493;51.496;7.210;2024-02-26T03:36:24;6.60;99.90
2967;DHT22;1493;51.496;7.210;2024-02-26T03:38:51;6.60;99.90
2967;DHT22;1493;51.496;7.210;2024-02-26T03:41:18;6.60;99.90
2967;DHT22;1493;51.496;7.210;2024-02-26T03:43:43;6.60;99.90
2967;DHT22;1493;51.496;7.210;2024-02-26T03:46:11;6.50;99.90
2967;DHT22;1493;51.496;7.210;2024-02-26T03:48:40;6.50;99.90
2967;DHT22;1493;51.496;7.210;2024-02-26T03:51:08;6.40;99.90
2967;DHT22;1493;51.496;7.210;2024-02-26T03:53:35;6.30;99.90
2967;DHT22;1493;51.496;7.210;2024-02-26T03:56:04;6.20;99.90
2967;DHT22;1493;51.496;7.210;2024-02-26T03:58:31;6.20;99.90
2967;DHT22;1493;51.496;7.210;2024-02-26T04:00:58;6.20;99.90
2967;DHT22;1493;51.496;7.210;2024-02-26T04:03:37;6.10;99.90
2967;DHT22;1493;51.496;7.210;2024-02-26T04:06:08;6.10;99.90
2967;DHT22;1493;51.496;7.210;2024-02-26T04:08:35;6.00;99.90
2967;DHT22;1493;51.496;7.210;2024-02-26T04:11:02;6.00;99.90
2967;DHT22;1493;51.496;7.210;2024-02-26T04:13:32;5.90;99.90
2967;DHT22;1493;51.496;7.210;2024-02-26T04:15:59;5.80;99.90
2967;DHT22;1493;51.496;7.210;2024-02-26T04:18:28;5.70;99.90
2967;DHT22;1493;51.496;7.210;2024-02-26T04:20:55;5.60;99.90
2967;DHT22;1493;51.496;7.210;2024-02-26T04:23:23;5.60;99.90
2967;DHT22;1493;51.496;7.210;2024-02-26T04:25:50;5.50;99.90
2967;DHT22;1493;51.496;7.210;2024-02-26T04:28:18;5.50;99.90
2967;DHT22;1493;51.496;7.210;2024-02-26T04:30:47;5.50;99.90
2967;DHT22;1493;51.496;7.210;2024-02-26T04:33:14;5.50;99.90
2967;DHT22;1493;51.496;7.210;2024-02-26T04:35:40;5.50;99.90
2967;DHT22;1493;51.496;7.210;2024-02-26T04:38:07;5.60;99.90
2967;DHT22;1493;51.496;7.210;2024-02-26T04:40:36;5.60;99.90
2967;DHT22;1493;51.496;7.210;2024-02-26T04:43:04;5.60;99.90
2967;DHT22;1493;51.496;7.210;2024-02-26T04:45:46;5.60;99.90
2967;DHT22;1493;51.496;7.210;2024-02-26T04:48:13;5.60;99.90
2967;DHT22;1493;51.496;7.210;2024-02-26T04:50:40;5.60;99.90
2967;DHT22;1493;51.496;7.210;2024-02-26T04:53:07;5.60;99.90
2967;DHT22;1493;51.496;7.210;2024-02-26T04:55:36;5.60;99.90
2967;DHT22;1493;51.496;7.210;2024-02-26T04:58:07;5.60;99.90
2967;DHT22;1493;51.496;7.210;2024-02-26T05:00:37;5.70;99.90
2967;DHT22;1493;51.496;7.210;2024-02-26T05:03:04;5.70;99.90
2967;DHT22;1493;51.496;7.210;2024-02-26T05:05:31;5.70;99.90
2967;DHT22;1493;51.496;7.210;2024-02-26T05:07:58;5.70;99.90
2967;DHT22;1493;51.496;7.210;2024-02-26T05:10:25;5.70;99.90
2967;DHT22;1493;51.496;7.210;2024-02-26T05:12:53;5.60;99.90
2967;DHT22;1493;51.496;7.210;2024-02-26T05:15:20;5.70;99.90
2967;DHT22;1493;51.496;7.210;2024-02-26T05:17:47;5.70;99.90
2967;DHT22;1493;51.496;7.210;2024-02-26T05:20:14;5.80;99.90
2967;DHT22;1493;51.496;7.210;2024-02-26T05:22:41;5.70;99.90
2967;DHT22;1493;51.496;7.210;2024-02-26T05:25:08;5.70;99.90
2967;DHT22;1493;51.496;7.210;2024-02-26T05:27:35;5.60;99.90
2967;DHT22;1493;51.496;7.210;2024-02-26T05:30:04;5.70;99.90
2967;DHT22;1493;51.496;7.210;2024-02-26T05:32:32;5.60;99.90
2967;DHT22;1493;51.496;7.210;2024-02-26T05:34:59;5.70;99.90
2967;DHT22;1493;51.496;7.210;2024-02-26T05:37:25;5.50;99.90
2967;DHT22;1493;51.496;7.210;2024-02-26T05:39:52;5.50;99.90
2967;DHT22;1493;51.496;7.210;2024-02-26T05:42:19;5.50;99.90
2967;DHT22;1493;51.496;7.210;2024-02-26T05:44:47;5.40;99.90
2967;DHT22;1493;51.496;7.210;2024-02-26T05:47:16;5.50;99.90
2967;DHT22;1493;51.496;7.210;2024-02-26T05:49:43;5.40;99.90
2967;DHT22;1493;51.496;7.210;2024-02-26T05:52:10;5.40;99.90
2967;DHT22;1493;51.496;7.210;2024-02-26T05:54:37;5.50;99.90
2967;DHT22;1493;51.496;7.210;2024-02-26T05:57:04;5.50;99.90
2967;DHT22;1493;51.496;7.210;2024-02-26T05:59:31;5.50;99.90
2967;DHT22;1493;51.496;7.210;2024-02-26T06:02:03;5.50;99.90
2967;DHT22;1493;51.496;7.210;2024-02-26T06:04:34;5.50;99.90
2967;DHT22;1493;51.496;7.210;2024-02-26T06:07:02;5.40;99.90
2967;DHT22;1493;51.496;7.210;2024-02-26T06:09:30;5.40;99.90
2967;DHT22;1493;51.496;7.210;2024-02-26T06:11:57;5.30;99.90
2967;DHT22;1493;51.496;7.210;2024-02-26T06:14:24;5.30;99.90
2967;DHT22;1493;51.496;7.210;2024-02-26T06:16:51;5.30;99.90
2967;DHT22;1493;51.496;7.210;2024-02-26T06:19:18;5.30;99.90
2967;DHT22;1493;51.496;7.210;2024-02-26T06:21:48;5.30;99.90
2967;DHT22;1493;51.496;7.210;2024-02-26T06:24:19;5.30;99.90
2967;DHT22;1493;51.496;7.210;2024-02-26T06:26:47;5.30;99.90
2967;DHT22;1493;51.496;7.210;2024-02-26T06:29:14;5.40;99.90
2967;DHT22;1493;51.496;7.210;2024-02-26T06:31:48;5.30;99.90
2967;DHT22;1493;51.496;7.210;2024-02-26T06:34:16;5.30;99.90
2967;DHT22;1493;51.496;7.210;2024-02-26T06:36:48;5.30;99.90
2967;DHT22;1493;51.496;7.210;2024-02-26T06:39:15;5.40;99.90
2967;DHT22;1493;51.496;7.210;2024-02-26T06:41:41;5.40;99.90
2967;DHT22;1493;51.496;7.210;2024-02-26T06:44:08;5.40;99.90
2967;DHT22;1493;51.496;7.210;2024-02-26T06:46:38;5.40;99.90
2967;DHT22;1493;51.496;7.210;2024-02-26T06:49:05;5.30;99.90
2967;DHT22;1493;51.496;7.210;2024-02-26T06:51:32;5.30;99.90
2967;DHT22;1493;51.496;7.210;2024-02-26T06:54:00;5.40;99.90
2967;DHT22;1493;51.496;7.210;2024-02-26T06:56:28;5.30;99.90
2967;DHT22;1493;51.496;7.210;2024-02-26T06:58:55;5.40;99.90
2967;DHT22;1493;51.496;7.210;2024-02-26T07:01:26;5.40;99.90
2967;DHT22;1493;51.496;7.210;2024-02-26T07:03:56;5.40;99.90
2967;DHT22;1493;51.496;7.210;2024-02-26T07:06:59;5.40;99.90
2967;DHT22;1493;51.496;7.210;2024-02-26T07:09:52;5.50;99.90
2967;DHT22;1493;51.496;7.210;2024-02-26T07:12:37;5.40;99.90
2967;DHT22;1493;51.496;7.210;2024-02-26T07:15:08;5.40;99.90
2967;DHT22;1493;51.496;7.210;2024-02-26T07:17:38;5.50;99.90
2967;DHT22;1493;51.496;7.210;2024-02-26T07:20:16;5.40;99.90
2967;DHT22;1493;51.496;7.210;2024-02-26T07:22:44;5.50;99.90
2967;DHT22;1493;51.496;7.210;2024-02-26T07:28:11;5.60;99.90
2967;DHT22;1493;51.496;7.210;2024-02-26T07:30:39;5.50;99.90
2967;DHT22;1493;51.496;7.210;2024-02-26T07:33:25;5.60;99.90
2967;DHT22;1493;51.496;7.210;2024-02-26T07:35:55;5.60;99.90
2967;DHT22;1493;51.496;7.210;2024-02-26T07:38:25;5.60;99.90
2967;DHT22;1493;51.496;7.210;2024-02-26T07:40:53;5.60;99.90
2967;DHT22;1493;51.496;7.210;2024-02-26T07:43:22;5.70;99.90
2967;DHT22;1493;51.496;7.210;2024-02-26T07:45:49;5.70;99.90
2967;DHT22;1493;51.496;7.210;2024-02-26T07:48:16;5.70;99.90
2967;DHT22;1493;51.496;7.210;2024-02-26T07:50:43;5.80;99.90
2967;DHT22;1493;51.496;7.210;2024-02-26T07:53:10;5.80;99.90
2967;DHT22;1493;51.496;7.210;2024-02-26T07:55:37;5.70;99.90
2967;DHT22;1493;51.496;7.210;2024-02-26T07:58:13;5.80;99.90
2967;DHT22;1493;51.496;7.210;2024-02-26T08:01:05;5.80;99.90
2967;DHT22;1493;51.496;7.210;2024-02-26T08:03:48;5.90;99.90
2967;DHT22;1493;51.496;7.210;2024-02-26T08:06:38;5.80;99.90
2967;DHT22;1493;51.496;7.210;2024-02-26T08:09:09;5.90;99.90
2967;DHT22;1493;51.496;7.210;2024-02-26T08:11:43;5.90;99.90
2967;DHT22;1493;51.496;7.210;2024-02-26T08:14:24;5.90;99.90
2967;DHT22;1493;51.496;7.210;2024-02-26T08:17:12;5.90;99.90
2967;DHT22;1493;51.496;7.210;2024-02-26T08:19:39;6.00;99.90
2967;DHT22;1493;51.496;7.210;2024-02-26T08:22:15;6.00;99.90
2967;DHT22;1493;51.496;7.210;2024-02-26T08:24:49;6.00;99.90
2967;DHT22;1493;51.496;7.210;2024-02-26T08:27:32;6.00;99.90
2967;DHT22;1493;51.496;7.210;2024-02-26T08:30:16;6.00;99.90
2967;DHT22;1493;51.496;7.210;2024-02-26T08:32:47;6.10;99.90
2967;DHT22;1493;51.496;7.210;2024-02-26T08:35:17;6.10;99.90
2967;DHT22;1493;51.496;7.210;2024-02-26T08:37:58;6.10;99.90
2967;DHT22;1493;51.496;7.210;2024-02-26T08:40:30;6.10;99.90
2967;DHT22;1493;51.496;7.210;2024-02-26T08:43:00;6.10;99.90
2967;DHT22;1493;51.496;7.210;2024-02-26T08:45:40;6.10;99.90
2967;DHT22;1493;51.496;7.210;2024-02-26T08:48:10;6.10;99.90
2967;DHT22;1493;51.496;7.210;2024-02-26T08:50:38;6.20;99.90
2967;DHT22;1493;51.496;7.210;2024-02-26T08:53:12;6.20;99.90
2967;DHT22;1493;51.496;7.210;2024-02-26T08:55:44;6.30;99.90
2967;DHT22;1493;51.496;7.210;2024-02-26T08:58:14;6.30;99.90
2967;DHT22;1493;51.496;7.210;2024-02-26T09:00:48;6.30;99.90
2967;DHT22;1493;51.496;7.210;2024-02-26T09:03:15;6.30;99.90
2967;DHT22;1493;51.496;7.210;2024-02-26T09:05:43;6.30;99.90
2967;DHT22;1493;51.496;7.210;2024-02-26T09:08:10;6.40;99.90
2967;DHT22;1493;51.496;7.210;2024-02-26T09:10:37;6.40;99.90
2967;DHT22;1493;51.496;7.210;2024-02-26T09:13:04;6.40;99.90
2967;DHT22;1493;51.496;7.210;2024-02-26T09:15:31;6.40;99.90
2967;DHT22;1493;51.496;7.210;2024-02-26T09:17:59;6.40;99.90
2967;DHT22;1493;51.496;7.210;2024-02-26T09:20:27;6.30;99.90
2967;DHT22;1493;51.496;7.210;2024-02-26T09:22:53;6.40;99.90
2967;DHT22;1493;51.496;7.210;2024-02-26T09:25:20;6.40;99.90
2967;DHT22;1493;51.496;7.210;2024-02-26T09:27:47;6.40;99.90
2967;DHT22;1493;51.496;7.210;2024-02-26T09:30:14;6.40;99.90
2967;DHT22;1493;51.496;7.210;2024-02-26T09:32:41;6.40;99.90
2967;DHT22;1493;51.496;7.210;2024-02-26T09:35:09;6.50;99.90
2967;DHT22;1493;51.496;7.210;2024-02-26T09:37:36;6.40;99.90
2967;DHT22;1493;51.496;7.210;2024-02-26T09:40:03;6.40;99.90
2967;DHT22;1493;51.496;7.210;2024-02-26T09:42:32;6.50;99.90
2967;DHT22;1493;51.496;7.210;2024-02-26T09:45:00;6.50;99.90
2967;DHT22;1493;51.496;7.210;2024-02-26T09:47:31;6.60;99.90
2967;DHT22;1493;51.496;7.210;2024-02-26T09:49:59;6.50;99.90
2967;DHT22;1493;51.496;7.210;2024-02-26T09:52:28;6.50;99.90
2967;DHT22;1493;51.496;7.210;2024-02-26T09:54:57;6.60;99.90
2967;DHT22;1493;51.496;7.210;2024-02-26T09:57:24;6.60;99.90
2967;DHT22;1493;51.496;7.210;2024-02-26T09:59:53;6.70;99.90
2967;DHT22;1493;51.496;7.210;2024-02-26T10:02:21;6.70;99.90
2967;DHT22;1493;51.496;7.210;2024-02-26T10:04:48;6.70;99.90
2967;DHT22;1493;51.496;7.210;2024-02-26T10:07:18;6.80;99.90
2967;DHT22;1493;51.496;7.210;2024-02-26T10:09:46;6.80;99.90
2967;DHT22;1493;51.496;7.210;2024-02-26T10:12:16;6.80;99.90
2967;DHT22;1493;51.496;7.210;2024-02-26T10:14:43;6.90;99.90
2967;DHT22;1493;51.496;7.210;2024-02-26T10:17:10;7.00;99.90
2967;DHT22;1493;51.496;7.210;2024-02-26T10:19:37;7.10;99.90
2967;DHT22;1493;51.496;7.210;2024-02-26T10:22:04;7.00;99.90
2967;DHT22;1493;51.496;7.210;2024-02-26T10:24:31;7.10;99.90
2967;DHT22;1493;51.496;7.210;2024-02-26T10:26:59;7.20;99.90
2967;DHT22;1493;51.496;7.210;2024-02-26T10:29:26;7.30;99.90
2967;DHT22;1493;51.496;7.210;2024-02-26T10:31:53;7.30;99.90
2967;DHT22;1493;51.496;7.210;2024-02-26T10:34:20;7.40;99.90
2967;DHT22;1493;51.496;7.210;2024-02-26T10:36:48;7.50;99.90
2967;DHT22;1493;51.496;7.210;2024-02-26T10:39:15;7.50;99.90
2967;DHT22;1493;51.496;7.210;2024-02-26T10:41:43;7.50;99.90
2967;DHT22;1493;51.496;7.210;2024-02-26T10:44:12;7.50;99.90
2967;DHT22;1493;51.496;7.210;2024-02-26T10:46:40;7.50;99.90
2967;DHT22;1493;51.496;7.210;2024-02-26T10:49:13;7.50;99.90
2967;DHT22;1493;51.496;7.210;2024-02-26T10:51:42;7.60;99.90
2967;DHT22;1493;51.496;7.210;2024-02-26T10:54:12;7.60;99.90
2967;DHT22;1493;51.496;7.210;2024-02-26T10:56:42;7.70;99.90
2967;DHT22;1493;51.496;7.210;2024-02-26T10:59:10;7.70;99.90
2967;DHT22;1493;51.496;7.210;2024-02-26T11:01:39;7.70;99.90
2967;DHT22;1493;51.496;7.210;2024-02-26T11:04:08;7.50;99.90
2967;DHT22;1493;51.496;7.210;2024-02-26T11:06:37;7.60;99.90
2967;DHT22;1493;51.496;7.210;2024-02-26T11:09:05;7.60;99.90
2967;DHT22;1493;51.496;7.210;2024-02-26T11:11:33;7.70;99.90
2967;DHT22;1493;51.496;7.210;2024-02-26T11:14:01;7.70;99.90
2967;DHT22;1493;51.496;7.210;2024-02-26T11:16:30;7.80;99.90
2967;DHT22;1493;51.496;7.210;2024-02-26T11:19:00;7.70;99.90
2967;DHT22;1493;51.496;7.210;2024-02-26T11:21:28;7.70;99.90
2967;DHT22;1493;51.496;7.210;2024-02-26T11:24:05;7.70;99.90
2967;DHT22;1493;51.496;7.210;2024-02-26T11:26:33;7.80;99.90
2967;DHT22;1493;51.496;7.210;2024-02-26T11:29:01;7.90;99.90
2967;DHT22;1493;51.496;7.210;2024-02-26T11:31:28;7.80;99.90
2967;DHT22;1493;51.496;7.210;2024-02-26T11:33:56;7.80;99.90
2967;DHT22;1493;51.496;7.210;2024-02-26T11:36:25;7.80;99.90
2967;DHT22;1493;51.496;7.210;2024-02-26T11:38:52;7.70;99.90
2967;DHT22;1493;51.496;7.210;2024-02-26T11:41:19;7.70;99.90
2967;DHT22;1493;51.496;7.210;2024-02-26T11:43:50;7.80;99.90
2967;DHT22;1493;51.496;7.210;2024-02-26T11:46:28;8.10;99.90
2967;DHT22;1493;51.496;7.210;2024-02-26T11:48:59;8.40;99.90
2967;DHT22;1493;51.496;7.210;2024-02-26T11:51:32;8.90;99.90
2967;DHT22;1493;51.496;7.210;2024-02-26T11:54:00;9.20;99.90
2967;DHT22;1493;51.496;7.210;2024-02-26T11:56:27;9.50;99.90
2967;DHT22;1493;51.496;7.210;2024-02-26T11:59:00;9.40;99.90
2967;DHT22;1493;51.496;7.210;2024-02-26T12:01:43;9.60;99.90
2967;DHT22;1493;51.496;7.210;2024-02-26T12:04:18;9.60;99.90
2967;DHT22;1493;51.496;7.210;2024-02-26T12:06:50;9.50;99.90
2967;DHT22;1493;51.496;7.210;2024-02-26T12:09:34;9.20;99.90
2967;DHT22;1493;51.496;7.210;2024-02-26T12:12:02;9.00;99.90
2967;DHT22;1493;51.496;7.210;2024-02-26T12:14:29;8.90;99.90
2967;DHT22;1493;51.496;7.210;2024-02-26T12:16:56;8.90;99.90
2967;DHT22;1493;51.496;7.210;2024-02-26T12:19:24;8.80;99.90
2967;DHT22;1493;51.496;7.210;2024-02-26T12:21:53;8.60;99.90
2967;DHT22;1493;51.496;7.210;2024-02-26T12:24:20;8.40;99.90
2967;DHT22;1493;51.496;7.210;2024-02-26T12:26:48;8.40;99.90
2967;DHT22;1493;51.496;7.210;2024-02-26T12:29:14;8.50;99.90
2967;DHT22;1493;51.496;7.210;2024-02-26T12:31:42;8.60;99.90
2967;DHT22;1493;51.496;7.210;2024-02-26T12:34:09;8.80;99.90
2967;DHT22;1493;51.496;7.210;2024-02-26T12:36:36;9.00;99.90
2967;DHT22;1493;51.496;7.210;2024-02-26T12:39:05;9.60;99.90
2967;DHT22;1493;51.496;7.210;2024-02-26T12:41:32;10.20;99.90
2967;DHT22;1493;51.496;7.210;2024-02-26T12:44:00;10.30;99.90
2967;DHT22;1493;51.496;7.210;2024-02-26T12:46:27;10.20;99.90
2967;DHT22;1493;51.496;7.210;2024-02-26T12:48:55;9.60;99.90
2967;DHT22;1493;51.496;7.210;2024-02-26T12:51:25;9.30;99.90
2967;DHT22;1493;51.496;7.210;2024-02-26T12:53:52;9.00;99.90
2967;DHT22;1493;51.496;7.210;2024-02-26T12:56:21;8.80;99.90
2967;DHT22;1493;51.496;7.210;2024-02-26T12:58:50;8.90;99.90
2967;DHT22;1493;51.496;7.210;2024-02-26T13:01:21;8.90;99.90
2967;DHT22;1493;51.496;7.210;2024-02-26T13:03:49;9.00;99.90
2967;DHT22;1493;51.496;7.210;2024-02-26T13:06:17;8.70;99.90
2967;DHT22;1493;51.496;7.210;2024-02-26T13:08:44;8.70;99.90
2967;DHT22;1493;51.496;7.210;2024-02-26T13:11:11;8.70;99.90
2967;DHT22;1493;51.496;7.210;2024-02-26T13:13:39;8.70;99.90
2967;DHT22;1493;51.496;7.210;2024-02-26T13:16:13;8.70;99.90
2967;DHT22;1493;51.496;7.210;2024-02-26T13:18:40;8.80;99.90
2967;DHT22;1493;51.496;7.210;2024-02-26T13:21:09;8.60;99.90
2967;DHT22;1493;51.496;7.210;2024-02-26T13:23:35;8.60;99.90
2967;DHT22;1493;51.496;7.210;2024-02-26T13:26:03;8.50;99.90
2967;DHT22;1493;51.496;7.210;2024-02-26T13:28:30;8.30;99.90
2967;DHT22;1493;51.496;7.210;2024-02-26T13:30:58;8.30;99.90
2967;DHT22;1493;51.496;7.210;2024-02-26T13:33:27;8.40;99.90
2967;DHT22;1493;51.496;7.210;2024-02-26T13:35:54;8.40;99.90
2967;DHT22;1493;51.496;7.210;2024-02-26T13:38:21;8.40;99.90
2967;DHT22;1493;51.496;7.210;2024-02-26T13:40:49;8.40;99.90
2967;DHT22;1493;51.496;7.210;2024-02-26T13:43:16;8.50;99.90
2967;DHT22;1493;51.496;7.210;2024-02-26T13:45:43;8.50;99.90
2967;DHT22;1493;51.496;7.210;2024-02-26T13:48:13;8.50;99.90
2967;DHT22;1493;51.496;7.210;2024-02-26T13:50:40;8.60;99.90
2967;DHT22;1493;51.496;7.210;2024-02-26T13:53:09;8.50;99.90
2967;DHT22;1493;51.496;7.210;2024-02-26T13:55:37;8.60;99.90
2967;DHT22;1493;51.496;7.210;2024-02-26T13:58:04;8.40;99.90
2967;DHT22;1493;51.496;7.210;2024-02-26T14:00:31;8.30;99.90
2967;DHT22;1493;51.496;7.210;2024-02-26T14:02:59;8.50;99.90
2967;DHT22;1493;51.496;7.210;2024-02-26T14:05:27;8.40;99.90
2967;DHT22;1493;51.496;7.210;2024-02-26T14:07:55;8.50;99.90
2967;DHT22;1493;51.496;7.210;2024-02-26T14:10:22;8.70;99.90
2967;DHT22;1493;51.496;7.210;2024-02-26T14:12:49;8.60;99.90
2967;DHT22;1493;51.496;7.210;2024-02-26T14:15:16;8.60;99.90
2967;DHT22;1493;51.496;7.210;2024-02-26T14:17:43;8.60;99.90
2967;DHT22;1493;51.496;7.210;2024-02-26T14:20:11;8.80;99.90
2967;DHT22;1493;51.496;7.210;2024-02-26T14:22:39;8.90;99.90
2967;DHT22;1493;51.496;7.210;2024-02-26T14:25:07;9.10;99.90
2967;DHT22;1493;51.496;7.210;2024-02-26T14:27:35;9.10;99.90
2967;DHT22;1493;51.496;7.210;2024-02-26T14:30:01;9.10;99.90
2967;DHT22;1493;51.496;7.210;2024-02-26T14:32:30;9.10;99.90
2967;DHT22;1493;51.496;7.210;2024-02-26T14:35:00;9.10;99.90
2967;DHT22;1493;51.496;7.210;2024-02-26T14:37:28;9.00;99.90
2967;DHT22;1493;51.496;7.210;2024-02-26T14:39:56;9.10;99.90
2967;DHT22;1493;51.496;7.210;2024-02-26T14:42:23;8.90;99.90
2967;DHT22;1493;51.496;7.210;2024-02-26T14:44:50;8.80;99.90
2967;DHT22;1493;51.496;7.210;2024-02-26T14:47:17;8.60;99.90
2967;DHT22;1493;51.496;7.210;2024-02-26T14:49:43;8.70;99.90
2967;DHT22;1493;51.496;7.210;2024-02-26T14:52:13;8.80;99.90
2967;DHT22;1493;51.496;7.210;2024-02-26T14:54:40;8.80;99.90
2967;DHT22;1493;51.496;7.210;2024-02-26T14:57:08;8.80;99.90
2967;DHT22;1493;51.496;7.210;2024-02-26T14:59:35;8.80;99.90
2967;DHT22;1493;51.496;7.210;2024-02-26T15:02:03;8.50;99.90
2967;DHT22;1493;51.496;7.210;2024-02-26T15:04:30;8.60;99.90
2967;DHT22;1493;51.496;7.210;2024-02-26T15:06:57;8.60;99.90
2967;DHT22;1493;51.496;7.210;2024-02-26T15:09:23;8.70;99.90
2967;DHT22;1493;51.496;7.210;2024-02-26T15:11:50;8.70;99.90
2967;DHT22;1493;51.496;7.210;2024-02-26T15:14:18;8.70;99.90
2967;DHT22;1493;51.496;7.210;2024-02-26T15:16:45;8.50;99.90
2967;DHT22;1493;51.496;7.210;2024-02-26T15:19:12;8.50;99.90
2967;DHT22;1493;51.496;7.210;2024-02-26T15:21:42;8.50;99.90
2967;DHT22;1493;51.496;7.210;2024-02-26T15:24:09;8.40;99.90
2967;DHT22;1493;51.496;7.210;2024-02-26T15:26:36;8.40;99.90
2967;DHT22;1493;51.496;7.210;2024-02-26T15:29:03;8.30;99.90
2967;DHT22;1493;51.496;7.210;2024-02-26T15:31:31;8.30;99.90
2967;DHT22;1493;51.496;7.210;2024-02-26T15:33:58;8.20;99.90
2967;DHT22;1493;51.496;7.210;2024-02-26T15:36:25;8.20;99.90
2967;DHT22;1493;51.496;7.210;2024-02-26T15:38:52;8.10;99.90
2967;DHT22;1493;51.496;7.210;2024-02-26T15:41:19;8.20;99.90
2967;DHT22;1493;51.496;7.210;2024-02-26T15:43:46;8.20;99.90
2967;DHT22;1493;51.496;7.210;2024-02-26T15:46:12;8.30;99.90
2967;DHT22;1493;51.496;7.210;2024-02-26T15:48:41;8.20;99.90
2967;DHT22;1493;51.496;7.210;2024-02-26T15:51:07;8.20;99.90
2967;DHT22;1493;51.496;7.210;2024-02-26T15:53:34;8.20;99.90
2967;DHT22;1493;51.496;7.210;2024-02-26T15:56:01;8.10;99.90
2967;DHT22;1493;51.496;7.210;2024-02-26T15:58:28;8.20;99.90
2967;DHT22;1493;51.496;7.210;2024-02-26T16:00:55;8.20;99.90
2967;DHT22;1493;51.496;7.210;2024-02-26T16:03:21;8.30;99.90
2967;DHT22;1493;51.496;7.210;2024-02-26T16:05:50;8.20;99.90
2967;DHT22;1493;51.496;7.210;2024-02-26T16:08:20;8.00;99.90
2967;DHT22;1493;51.496;7.210;2024-02-26T16:10:47;8.00;99.90
2967;DHT22;1493;51.496;7.210;2024-02-26T16:13:14;8.10;99.90
2967;DHT22;1493;51.496;7.210;2024-02-26T16:15:44;8.00;99.90
2967;DHT22;1493;51.496;7.210;2024-02-26T16:18:11;8.00;99.90
2967;DHT22;1493;51.496;7.210;2024-02-26T16:20:39;8.00;99.90
2967;DHT22;1493;51.496;7.210;2024-02-26T16:23:07;8.00;99.90
2967;DHT22;1493;51.496;7.210;2024-02-26T16:25:34;7.90;99.90
2967;DHT22;1493;51.496;7.210;2024-02-26T16:28:01;7.90;99.90